createdAt,value
2018-06-04T00:02:44.459Z,17.30
2018-06-04T00:07:18.960Z,17.30
2018-06-04T00:11:53.577Z,17.30
2018-06-04T00:16:28.234Z,17.20
2018-06-04T00:21:02.534Z,17.20
2018-06-04T00:25:36.894Z,17.20
2018-06-04T00:30:11.455Z,17.20
2018-06-04T00:34:46.008Z,17.10
2018-06-04T00:43:53.966Z,17.00
2018-06-04T00:48:28.334Z,17.00
2018-06-04T00:53:03.182Z,17.00
2018-06-04T00:57:37.406Z,17.00
2018-06-04T01:02:11.826Z,17.00
2018-06-04T01:06:46.251Z,17.00
2018-06-04T01:11:20.461Z,17.00
2018-06-04T01:15:54.723Z,17.00
2018-06-04T01:20:29.070Z,17.00
2018-06-04T01:25:03.539Z,16.90
2018-06-04T01:29:37.974Z,16.80
2018-06-04T01:34:12.357Z,16.80
2018-06-04T01:38:47.008Z,16.90
2018-06-04T01:43:21.214Z,16.90
2018-06-04T01:47:55.611Z,16.80
2018-06-04T01:52:29.976Z,16.80
2018-06-04T02:01:38.321Z,16.70
2018-06-04T02:06:12.686Z,16.70
2018-06-04T02:10:46.899Z,16.70
2018-06-04T02:19:55.218Z,16.60
2018-06-04T02:24:29.737Z,16.50
2018-06-04T02:29:04.175Z,16.60
2018-06-04T02:33:38.467Z,16.60
2018-06-04T02:38:13.249Z,16.60
2018-06-04T02:42:47.539Z,16.50
2018-06-04T02:51:56.811Z,16.60
2018-06-04T02:56:31.110Z,16.60
2018-06-04T03:01:05.619Z,16.70
2018-06-04T03:05:40.151Z,16.80
2018-06-04T03:10:15.306Z,16.70
2018-06-04T03:14:49.985Z,16.80
2018-06-04T03:19:24.407Z,16.70
2018-06-04T03:23:58.842Z,16.70
2018-06-04T03:28:33.163Z,16.60
2018-06-04T03:33:07.943Z,16.60
2018-06-04T03:37:42.437Z,16.60
2018-06-04T03:42:16.902Z,16.60
2018-06-04T03:46:51.550Z,16.60
2018-06-04T03:51:25.842Z,16.60
2018-06-04T03:56:00.562Z,16.70
2018-06-04T04:05:09.056Z,16.90
2018-06-04T04:09:43.378Z,17.10
2018-06-04T04:14:17.930Z,17.20
2018-06-04T04:18:52.198Z,17.30
2018-06-04T04:23:26.443Z,17.40
2018-06-04T04:28:01.359Z,17.60
2018-06-04T04:32:36.378Z,17.70
2018-06-04T04:37:11.162Z,17.90
2018-06-04T04:41:45.517Z,18.10
2018-06-04T04:46:20.196Z,18.20
2018-06-04T04:50:55.346Z,18.30
2018-06-04T04:55:29.543Z,18.30
2018-06-04T05:00:04.948Z,18.50
2018-06-04T05:04:39.477Z,18.70
2018-06-04T05:09:14.552Z,18.90
2018-06-04T05:13:48.978Z,19.00
2018-06-04T05:18:23.439Z,19.30
2018-06-04T05:22:57.729Z,19.60
2018-06-04T05:27:32.110Z,19.80
2018-06-04T05:32:06.718Z,19.90
2018-06-04T05:36:41.261Z,20.00
2018-06-04T05:41:16.337Z,20.10
2018-06-04T05:45:51.014Z,20.20
2018-06-04T05:50:25.458Z,20.40
2018-06-04T05:54:59.882Z,20.70
2018-06-04T05:59:34.271Z,21.00
2018-06-04T06:04:08.650Z,21.30
2018-06-04T06:08:43.026Z,21.60
2018-06-04T06:13:18.021Z,21.90
2018-06-04T06:17:52.514Z,21.80
2018-06-04T06:22:26.861Z,21.90
2018-06-04T06:27:01.192Z,22.20
2018-06-04T06:31:35.550Z,22.60
2018-06-04T06:40:43.954Z,22.90
2018-06-04T06:45:18.405Z,23.00
2018-06-04T06:49:52.946Z,23.00
2018-06-04T06:54:27.376Z,23.20
2018-06-04T06:59:01.810Z,23.50
2018-06-04T07:03:36.338Z,23.90
2018-06-04T07:08:11.271Z,24.10
2018-06-04T07:12:45.741Z,24.10
2018-06-04T07:17:20.217Z,24.30
2018-06-04T07:21:54.473Z,24.50
2018-06-04T07:26:28.696Z,24.60
2018-06-04T07:31:03.106Z,24.80
2018-06-04T07:35:37.583Z,25.20
2018-06-04T07:40:11.953Z,25.60
2018-06-04T07:44:46.810Z,25.80
2018-06-04T07:49:21.454Z,26.30
2018-06-04T07:53:55.881Z,26.70
2018-06-04T07:58:30.117Z,26.90
2018-06-04T08:03:04.314Z,27.10
2018-06-04T08:07:38.822Z,27.40
2018-06-04T08:12:13.083Z,27.60
2018-06-04T08:16:47.622Z,27.90
2018-06-04T08:21:22.187Z,28.20
2018-06-04T08:25:56.462Z,28.40
2018-06-04T08:30:31.009Z,28.60
2018-06-04T08:35:05.475Z,28.80
2018-06-04T08:39:39.710Z,29.00
2018-06-04T08:44:14.110Z,29.90
2018-06-04T08:48:48.555Z,31.40
2018-06-04T08:53:22.762Z,32.40
2018-06-04T08:57:57.544Z,33.60
2018-06-04T09:02:33.031Z,34.40
2018-06-04T09:07:07.407Z,34.90
2018-06-04T09:11:41.651Z,35.20
2018-06-04T09:16:16.357Z,35.30
2018-06-04T09:20:50.999Z,35.90
2018-06-04T09:29:59.279Z,35.60
2018-06-04T09:34:33.823Z,35.50
2018-06-04T09:39:08.496Z,35.40
2018-06-04T09:43:42.694Z,34.70
2018-06-04T09:48:17.122Z,35.20
2018-06-04T09:52:51.788Z,36.10
2018-06-04T09:57:26.237Z,36.60
2018-06-04T10:02:00.574Z,36.80
2018-06-04T10:06:35.154Z,37.50
2018-06-04T10:11:09.485Z,37.60
2018-06-04T10:15:44.042Z,37.30
2018-06-04T10:20:18.478Z,36.60
2018-06-04T10:24:52.805Z,37.50
2018-06-04T10:29:27.240Z,38.50
2018-06-04T10:34:01.699Z,39.30
2018-06-04T10:38:36.150Z,39.90
2018-06-04T10:43:10.550Z,39.30
2018-06-04T10:47:45.039Z,38.10
2018-06-04T10:52:19.507Z,38.50
2018-06-04T10:56:54.493Z,39.10
2018-06-04T11:01:28.956Z,38.60
2018-06-04T11:06:03.449Z,38.90
2018-06-04T11:10:37.846Z,38.60
2018-06-04T11:15:12.621Z,38.20
2018-06-04T11:19:46.978Z,37.50
2018-06-04T11:24:21.309Z,36.60
2018-06-04T11:28:55.766Z,36.40
2018-06-04T11:33:30.054Z,36.60
2018-06-04T11:38:04.886Z,36.50
2018-06-04T11:42:39.094Z,35.80
2018-06-04T11:47:13.702Z,34.10
2018-06-04T11:51:48.034Z,33.20
2018-06-04T11:56:22.516Z,34.70
2018-06-04T12:00:57.053Z,36.30
2018-06-04T12:05:31.535Z,37.00
2018-06-04T12:10:05.937Z,37.00
2018-06-04T12:14:40.245Z,37.20
2018-06-04T12:19:14.537Z,36.00
2018-06-04T12:23:48.946Z,34.20
2018-06-04T12:28:23.503Z,32.60
2018-06-04T12:32:57.819Z,32.00
2018-06-04T12:37:32.061Z,33.90
2018-06-04T12:42:06.401Z,35.00
2018-06-04T12:46:41.082Z,34.20
2018-06-04T12:51:15.505Z,35.40
2018-06-04T12:55:49.737Z,36.90
2018-06-04T13:00:24.722Z,37.00
2018-06-04T13:09:33.174Z,33.20
2018-06-04T13:14:07.679Z,32.20
2018-06-04T13:18:41.881Z,33.10
2018-06-04T13:23:16.261Z,34.30
2018-06-04T13:27:50.736Z,34.50
2018-06-04T13:32:25.158Z,34.40
2018-06-04T13:36:59.545Z,34.20
2018-06-04T13:41:34.082Z,33.80
2018-06-04T13:46:08.434Z,33.20
2018-06-04T13:50:42.828Z,33.10
2018-06-04T13:55:17.273Z,33.00
2018-06-04T13:59:52.033Z,33.00
2018-06-04T14:04:26.595Z,32.40
2018-06-04T14:09:01.275Z,31.50
2018-06-04T14:13:35.830Z,30.80
2018-06-04T14:18:10.220Z,30.30
2018-06-04T14:22:44.698Z,30.10
2018-06-04T14:27:18.889Z,30.30
2018-06-04T14:31:53.419Z,30.30
2018-06-04T14:36:28.070Z,30.60
2018-06-04T14:41:02.649Z,30.70
2018-06-04T14:45:36.933Z,30.70
2018-06-04T14:54:45.740Z,30.40
2018-06-04T14:59:19.967Z,30.20
2018-06-04T15:03:55.132Z,30.00
2018-06-04T15:08:29.707Z,29.80
2018-06-04T15:13:04.289Z,29.70
2018-06-04T15:17:38.925Z,29.60
2018-06-04T15:22:13.718Z,29.40
2018-06-04T15:26:48.003Z,29.30
2018-06-04T15:35:56.782Z,28.90
2018-06-04T15:40:31.186Z,28.80
2018-06-04T15:45:06.278Z,29.00
2018-06-04T15:49:41.025Z,29.20
2018-06-04T15:54:16.098Z,29.40
2018-06-04T15:58:51.737Z,29.40
2018-06-04T16:03:26.399Z,29.50
2018-06-04T16:08:01.860Z,29.60
2018-06-04T16:12:37.076Z,29.30
2018-06-04T16:17:12.023Z,29.10
2018-06-04T16:21:46.577Z,28.90
2018-06-04T16:26:21.065Z,28.50
2018-06-04T16:30:55.518Z,28.40
2018-06-04T16:35:30.358Z,28.20
2018-06-04T16:40:08.005Z,28.00
2018-06-04T16:44:42.708Z,27.90
2018-06-04T16:49:17.177Z,27.80
2018-06-04T16:53:51.485Z,27.70
2018-06-04T17:03:00.825Z,27.30
2018-06-04T17:07:35.298Z,27.20
2018-06-04T17:12:09.892Z,26.90
2018-06-04T17:16:44.925Z,26.70
2018-06-04T17:21:19.247Z,26.60
2018-06-04T17:25:53.558Z,26.50
2018-06-04T17:30:27.766Z,26.40
2018-06-04T17:35:02.264Z,26.30
2018-06-04T17:39:36.614Z,26.30
2018-06-04T17:44:11.007Z,26.10
2018-06-04T17:48:46.067Z,26.00
2018-06-04T17:53:20.482Z,25.90
2018-06-04T17:57:55.085Z,25.90
2018-06-04T18:02:29.503Z,25.80
2018-06-04T18:07:04.015Z,25.80
2018-06-04T18:11:38.398Z,25.70
2018-06-04T18:16:13.364Z,25.70
2018-06-04T18:20:47.590Z,25.70
2018-06-04T18:25:21.950Z,25.70
2018-06-04T18:29:56.237Z,25.70
2018-06-04T18:34:31.058Z,25.70
2018-06-04T18:39:08.146Z,25.70
2018-06-04T18:43:42.837Z,25.70
2018-06-04T18:48:18.437Z,25.50
2018-06-04T18:52:52.763Z,25.30
2018-06-04T18:57:27.414Z,25.20
2018-06-04T19:02:01.729Z,25.00
2018-06-04T19:06:36.158Z,24.90
2018-06-04T19:15:44.497Z,24.50
2018-06-04T19:20:18.849Z,24.30
2018-06-04T19:29:27.035Z,23.90
2018-06-04T19:34:01.666Z,23.80
2018-06-04T19:38:36.009Z,23.70
2018-06-04T19:43:10.452Z,23.60
2018-06-04T19:47:44.857Z,23.30
2018-06-04T19:52:19.213Z,23.10
2018-06-04T19:56:53.837Z,22.90
2018-06-04T20:01:28.652Z,22.70
2018-06-04T20:06:03.033Z,22.50
2018-06-04T20:10:38.112Z,22.40
2018-06-04T20:15:12.377Z,22.30
2018-06-04T20:19:47.618Z,22.30
2018-06-04T20:33:30.898Z,22.30
2018-06-04T20:38:05.148Z,22.30
2018-06-04T20:42:39.941Z,22.10
2018-06-04T20:47:14.188Z,21.90
2018-06-04T20:51:48.546Z,21.80
2018-06-04T20:56:22.762Z,21.60
2018-06-04T21:00:57.770Z,21.50
2018-06-04T21:05:32.222Z,21.40
2018-06-04T21:10:06.442Z,21.30
2018-06-04T21:14:41.004Z,21.20
2018-06-04T21:19:15.346Z,21.10
2018-06-04T21:23:50.413Z,21.10
2018-06-04T21:28:24.960Z,21.10
2018-06-04T21:37:33.754Z,20.90
2018-06-04T21:46:42.018Z,20.60
2018-06-04T21:51:16.482Z,20.50
2018-06-04T21:55:50.952Z,20.40
2018-06-04T22:00:25.664Z,20.40
2018-06-04T22:05:00.050Z,20.20
2018-06-04T22:14:08.340Z,20.20
2018-06-04T22:18:42.678Z,20.10
2018-06-04T22:23:17.098Z,19.90
2018-06-04T22:27:51.541Z,19.80
2018-06-04T22:32:26.001Z,19.80
2018-06-04T22:37:01.029Z,19.70
2018-06-04T22:41:35.377Z,19.60
2018-06-04T22:46:09.874Z,19.60
2018-06-04T22:50:44.409Z,19.50
2018-06-04T22:55:18.886Z,19.40
2018-06-04T22:59:53.328Z,19.30
2018-06-04T23:04:27.761Z,19.30
2018-06-04T23:09:02.404Z,19.20
2018-06-04T23:13:43.386Z,19.10
2018-06-04T23:18:17.986Z,19.00
2018-06-04T23:22:52.464Z,19.00
2018-06-04T23:27:26.701Z,19.00
2018-06-04T23:32:01.013Z,18.90
2018-06-04T23:36:35.554Z,18.80
2018-06-04T23:41:10.081Z,18.80
2018-06-04T23:45:44.508Z,18.70
2018-06-04T23:50:19.164Z,18.70
2018-06-04T23:54:53.473Z,18.60
2018-06-04T23:59:27.850Z,18.50
